sensor_id;sensor_type;location;lat;lon;timestamp;temperature;humidity
15617;DHT22;7908;51.688;7.130;2022-10-17T00:00:21;12.60;99.90
15617;DHT22;7908;51.688;7.130;2022-10-17T00:02:50;12.50;99.90
15617;DHT22;7908;51.688;7.130;2022-10-17T00:05:19;12.50;99.90
15617;DHT22;7908;51.688;7.130;2022-10-17T00:07:48;12.50;99.90
15617;DHT22;7908;51.688;7.130;2022-10-17T00:10:18;12.50;99.90
15617;DHT22;7908;51.688;7.130;2022-10-17T00:12:49;12.40;99.90
15617;DHT22;7908;51.688;7.130;2022-10-17T00:15:19;12.40;99.90
15617;DHT22;7908;51.688;7.130;2022-10-17T00:17:49;12.40;99.90
15617;DHT22;7908;51.688;7.130;2022-10-17T00:20:18;12.40;99.90
15617;DHT22;7908;51.688;7.130;2022-10-17T00:22:47;12.40;99.90
15617;DHT22;7908;51.688;7.130;2022-10-17T00:25:18;12.40;99.90
15617;DHT22;7908;51.688;7.130;2022-10-17T00:27:47;12.40;99.90
15617;DHT22;7908;51.688;7.130;2022-10-17T00:30:17;12.30;99.90
15617;DHT22;7908;51.688;7.130;2022-10-17T00:32:46;12.30;99.90
15617;DHT22;7908;51.688;7.130;2022-10-17T00:35:15;12.30;99.90
15617;DHT22;7908;51.688;7.130;2022-10-17T00:37:43;12.30;99.90
15617;DHT22;7908;51.688;7.130;2022-10-17T00:40:12;12.30;99.90
15617;DHT22;7908;51.688;7.130;2022-10-17T00:42:43;12.30;99.90
15617;DHT22;7908;51.688;7.130;2022-10-17T00:45:16;12.20;99.90
15617;DHT22;7908;51.688;7.130;2022-10-17T00:47:49;12.20;99.90
15617;DHT22;7908;51.688;7.130;2022-10-17T00:50:19;12.20;99.90
15617;DHT22;7908;51.688;7.130;2022-10-17T00:52:48;12.10;99.90
15617;DHT22;7908;51.688;7.130;2022-10-17T00:55:20;12.10;99.90
15617;DHT22;7908;51.688;7.130;2022-10-17T00:57:52;12.10;99.90
15617;DHT22;7908;51.688;7.130;2022-10-17T01:00:21;12.10;99.90
15617;DHT22;7908;51.688;7.130;2022-10-17T01:02:51;12.10;99.90
15617;DHT22;7908;51.688;7.130;2022-10-17T01:05:20;12.10;99.90
15617;DHT22;7908;51.688;7.130;2022-10-17T01:07:51;12.10;99.90
15617;DHT22;7908;51.688;7.130;2022-10-17T01:10:21;12.10;99.90
15617;DHT22;7908;51.688;7.130;2022-10-17T01:13:07;12.10;99.90
15617;DHT22;7908;51.688;7.130;2022-10-17T01:15:49;12.10;99.90
15617;DHT22;7908;51.688;7.130;2022-10-17T01:18:29;12.00;99.90
15617;DHT22;7908;51.688;7.130;2022-10-17T01:21:18;12.00;99.90
15617;DHT22;7908;51.688;7.130;2022-10-17T01:27:18;12.00;99.90
15617;DHT22;7908;51.688;7.130;2022-10-17T01:33:05;12.00;99.90
15617;DHT22;7908;51.688;7.130;2022-10-17T01:35:40;12.00;99.90
15617;DHT22;7908;51.688;7.130;2022-10-17T01:38:11;11.90;99.90
15617;DHT22;7908;51.688;7.130;2022-10-17T01:40:45;11.90;99.90
15617;DHT22;7908;51.688;7.130;2022-10-17T01:43:21;11.90;99.90
15617;DHT22;7908;51.688;7.130;2022-10-17T01:45:56;11.90;99.90
15617;DHT22;7908;51.688;7.130;2022-10-17T01:48:33;11.90;99.90
15617;DHT22;7908;51.688;7.130;2022-10-17T01:51:07;11.90;99.90
15617;DHT22;7908;51.688;7.130;2022-10-17T01:53:40;11.90;99.90
15617;DHT22;7908;51.688;7.130;2022-10-17T01:56:13;11.80;99.90
15617;DHT22;7908;51.688;7.130;2022-10-17T01:58:46;11.80;99.90
15617;DHT22;7908;51.688;7.130;2022-10-17T02:01:17;11.80;99.90
15617;DHT22;7908;51.688;7.130;2022-10-17T02:03:48;11.80;99.90
15617;DHT22;7908;51.688;7.130;2022-10-17T02:06:18;11.80;99.90
15617;DHT22;7908;51.688;7.130;2022-10-17T02:08:48;11.80;99.90
15617;DHT22;7908;51.688;7.130;2022-10-17T02:11:20;11.80;99.90
15617;DHT22;7908;51.688;7.130;2022-10-17T02:14:12;11.80;99.90
15617;DHT22;7908;51.688;7.130;2022-10-17T02:16:46;11.80;99.90
15617;DHT22;7908;51.688;7.130;2022-10-17T02:19:54;11.80;99.90
15617;DHT22;7908;51.688;7.130;2022-10-17T02:22:37;11.90;99.90
15617;DHT22;7908;51.688;7.130;2022-10-17T02:25:12;11.80;99.90
15617;DHT22;7908;51.688;7.130;2022-10-17T02:27:47;11.80;99.90
15617;DHT22;7908;51.688;7.130;2022-10-17T02:30:32;11.80;99.90
15617;DHT22;7908;51.688;7.130;2022-10-17T02:33:06;11.80;99.90
15617;DHT22;7908;51.688;7.130;2022-10-17T02:35:42;11.80;99.90
15617;DHT22;7908;51.688;7.130;2022-10-17T02:38:15;11.70;99.90
15617;DHT22;7908;51.688;7.130;2022-10-17T02:40:49;11.70;99.90
15617;DHT22;7908;51.688;7.130;2022-10-17T02:43:21;11.70;99.90
15617;DHT22;7908;51.688;7.130;2022-10-17T02:45:51;11.60;99.90
15617;DHT22;7908;51.688;7.130;2022-10-17T02:48:25;11.60;99.90
15617;DHT22;7908;51.688;7.130;2022-10-17T02:51:03;11.60;99.90
15617;DHT22;7908;51.688;7.130;2022-10-17T02:53:41;11.60;99.90
15617;DHT22;7908;51.688;7.130;2022-10-17T02:56:15;11.60;99.90
15617;DHT22;7908;51.688;7.130;2022-10-17T02:58:47;11.60;99.90
15617;DHT22;7908;51.688;7.130;2022-10-17T03:01:19;11.60;99.90
15617;DHT22;7908;51.688;7.130;2022-10-17T03:03:48;11.60;99.90
15617;DHT22;7908;51.688;7.130;2022-10-17T03:06:19;11.60;99.90
15617;DHT22;7908;51.688;7.130;2022-10-17T03:08:49;11.50;99.90
15617;DHT22;7908;51.688;7.130;2022-10-17T03:11:18;11.50;99.90
15617;DHT22;7908;51.688;7.130;2022-10-17T03:13:48;11.50;99.90
15617;DHT22;7908;51.688;7.130;2022-10-17T03:16:18;11.50;99.90
15617;DHT22;7908;51.688;7.130;2022-10-17T03:18:47;11.40;99.90
15617;DHT22;7908;51.688;7.130;2022-10-17T03:21:16;11.50;99.90
15617;DHT22;7908;51.688;7.130;2022-10-17T03:23:48;11.50;99.90
15617;DHT22;7908;51.688;7.130;2022-10-17T03:26:17;11.50;99.90
15617;DHT22;7908;51.688;7.130;2022-10-17T03:28:46;11.50;99.90
15617;DHT22;7908;51.688;7.130;2022-10-17T03:31:20;11.40;99.90
15617;DHT22;7908;51.688;7.130;2022-10-17T03:33:50;11.40;99.90
15617;DHT22;7908;51.688;7.130;2022-10-17T03:36:20;11.40;99.90
15617;DHT22;7908;51.688;7.130;2022-10-17T03:38:52;11.40;99.90
15617;DHT22;7908;51.688;7.130;2022-10-17T03:41:22;11.40;99.90
15617;DHT22;7908;51.688;7.130;2022-10-17T03:43:52;11.50;99.90
15617;DHT22;7908;51.688;7.130;2022-10-17T03:46:21;11.50;99.90
15617;DHT22;7908;51.688;7.130;2022-10-17T03:48:52;11.50;99.90
15617;DHT22;7908;51.688;7.130;2022-10-17T03:51:22;11.50;99.90
15617;DHT22;7908;51.688;7.130;2022-10-17T03:53:53;11.50;99.90
15617;DHT22;7908;51.688;7.130;2022-10-17T03:56:24;11.50;99.90
15617;DHT22;7908;51.688;7.130;2022-10-17T03:58:54;11.40;99.90
15617;DHT22;7908;51.688;7.130;2022-10-17T04:01:24;11.40;99.90
15617;DHT22;7908;51.688;7.130;2022-10-17T04:03:54;11.40;99.90
15617;DHT22;7908;51.688;7.130;2022-10-17T04:06:24;11.40;99.90
15617;DHT22;7908;51.688;7.130;2022-10-17T04:08:54;11.40;99.90
15617;DHT22;7908;51.688;7.130;2022-10-17T04:11:23;11.40;99.90
15617;DHT22;7908;51.688;7.130;2022-10-17T04:13:52;11.40;99.90
15617;DHT22;7908;51.688;7.130;2022-10-17T04:16:22;11.40;99.90
15617;DHT22;7908;51.688;7.130;2022-10-17T04:18:52;11.40;99.90
15617;DHT22;7908;51.688;7.130;2022-10-17T04:21:22;11.40;99.90
15617;DHT22;7908;51.688;7.130;2022-10-17T04:24:05;11.40;99.90
15617;DHT22;7908;51.688;7.130;2022-10-17T04:26:34;11.40;99.90
15617;DHT22;7908;51.688;7.130;2022-10-17T04:29:03;11.40;99.90
15617;DHT22;7908;51.688;7.130;2022-10-17T04:31:33;11.40;99.90
15617;DHT22;7908;51.688;7.130;2022-10-17T04:34:04;11.40;99.90
15617;DHT22;7908;51.688;7.130;2022-10-17T04:36:33;11.40;99.90
15617;DHT22;7908;51.688;7.130;2022-10-17T04:39:03;11.40;99.90
15617;DHT22;7908;51.688;7.130;2022-10-17T04:41:32;11.30;99.90
15617;DHT22;7908;51.688;7.130;2022-10-17T04:44:01;11.30;99.90
15617;DHT22;7908;51.688;7.130;2022-10-17T04:46:32;11.40;99.90
15617;DHT22;7908;51.688;7.130;2022-10-17T04:49:01;11.40;99.90
15617;DHT22;7908;51.688;7.130;2022-10-17T04:51:32;11.30;99.90
15617;DHT22;7908;51.688;7.130;2022-10-17T04:54:18;11.30;99.90
15617;DHT22;7908;51.688;7.130;2022-10-17T04:56:47;11.30;99.90
15617;DHT22;7908;51.688;7.130;2022-10-17T04:59:16;11.30;99.90
15617;DHT22;7908;51.688;7.130;2022-10-17T05:01:45;11.30;99.90
15617;DHT22;7908;51.688;7.130;2022-10-17T05:04:16;11.40;99.90
15617;DHT22;7908;51.688;7.130;2022-10-17T05:06:50;11.30;99.90
15617;DHT22;7908;51.688;7.130;2022-10-17T05:09:21;11.40;99.90
15617;DHT22;7908;51.688;7.130;2022-10-17T05:11:51;11.30;99.90
15617;DHT22;7908;51.688;7.130;2022-10-17T05:14:21;11.40;99.90
15617;DHT22;7908;51.688;7.130;2022-10-17T05:16:50;11.30;99.90
15617;DHT22;7908;51.688;7.130;2022-10-17T05:19:19;11.30;99.90
15617;DHT22;7908;51.688;7.130;2022-10-17T05:21:48;11.30;99.90
15617;DHT22;7908;51.688;7.130;2022-10-17T05:24:20;11.30;99.90
15617;DHT22;7908;51.688;7.130;2022-10-17T05:26:49;11.30;99.90
15617;DHT22;7908;51.688;7.130;2022-10-17T05:29:18;11.30;99.90
15617;DHT22;7908;51.688;7.130;2022-10-17T05:31:48;11.30;99.90
15617;DHT22;7908;51.688;7.130;2022-10-17T05:34:17;11.30;99.90
15617;DHT22;7908;51.688;7.130;2022-10-17T05:36:45;11.30;99.90
15617;DHT22;7908;51.688;7.130;2022-10-17T05:39:14;11.20;99.90
15617;DHT22;7908;51.688;7.130;2022-10-17T05:41:47;11.20;99.90
15617;DHT22;7908;51.688;7.130;2022-10-17T05:44:17;11.20;99.90
15617;DHT22;7908;51.688;7.130;2022-10-17T05:46:49;11.20;99.90
15617;DHT22;7908;51.688;7.130;2022-10-17T05:49:18;11.20;99.90
15617;DHT22;7908;51.688;7.130;2022-10-17T05:52:06;11.20;99.90
15617;DHT22;7908;51.688;7.130;2022-10-17T05:54:36;11.20;99.90
15617;DHT22;7908;51.688;7.130;2022-10-17T05:57:06;11.30;99.90
15617;DHT22;7908;51.688;7.130;2022-10-17T05:59:35;11.30;99.90
15617;DHT22;7908;51.688;7.130;2022-10-17T06:02:05;11.30;99.90
15617;DHT22;7908;51.688;7.130;2022-10-17T06:04:34;11.20;99.90
15617;DHT22;7908;51.688;7.130;2022-10-17T06:07:04;11.20;99.90
15617;DHT22;7908;51.688;7.130;2022-10-17T06:09:36;11.20;99.90
15617;DHT22;7908;51.688;7.130;2022-10-17T06:12:10;11.30;99.90
15617;DHT22;7908;51.688;7.130;2022-10-17T06:14:39;11.30;99.90
15617;DHT22;7908;51.688;7.130;2022-10-17T06:17:08;11.30;99.90
15617;DHT22;7908;51.688;7.130;2022-10-17T06:19:44;11.30;99.90
15617;DHT22;7908;51.688;7.130;2022-10-17T06:22:13;11.30;99.90
15617;DHT22;7908;51.688;7.130;2022-10-17T06:24:42;11.30;99.90
15617;DHT22;7908;51.688;7.130;2022-10-17T06:27:13;11.30;99.90
15617;DHT22;7908;51.688;7.130;2022-10-17T06:29:42;11.40;99.90
15617;DHT22;7908;51.688;7.130;2022-10-17T06:32:13;11.40;99.90
15617;DHT22;7908;51.688;7.130;2022-10-17T06:34:43;11.40;99.90
15617;DHT22;7908;51.688;7.130;2022-10-17T06:37:13;11.50;99.90
15617;DHT22;7908;51.688;7.130;2022-10-17T06:39:42;11.50;99.90
15617;DHT22;7908;51.688;7.130;2022-10-17T06:42:13;11.50;99.90
15617;DHT22;7908;51.688;7.130;2022-10-17T06:44:42;11.60;99.90
15617;DHT22;7908;51.688;7.130;2022-10-17T06:47:11;11.60;99.90
15617;DHT22;7908;51.688;7.130;2022-10-17T06:49:45;11.60;99.90
15617;DHT22;7908;51.688;7.130;2022-10-17T06:52:14;11.70;99.90
15617;DHT22;7908;51.688;7.130;2022-10-17T06:54:44;11.70;99.90
15617;DHT22;7908;51.688;7.130;2022-10-17T06:57:16;11.80;99.90
15617;DHT22;7908;51.688;7.130;2022-10-17T06:59:45;12.00;99.90
15617;DHT22;7908;51.688;7.130;2022-10-17T07:02:15;12.20;99.90
15617;DHT22;7908;51.688;7.130;2022-10-17T07:04:46;12.50;99.90
15617;DHT22;7908;51.688;7.130;2022-10-17T07:07:15;12.80;99.90
15617;DHT22;7908;51.688;7.130;2022-10-17T07:09:44;13.10;99.90
15617;DHT22;7908;51.688;7.130;2022-10-17T07:12:16;13.30;99.90
15617;DHT22;7908;51.688;7.130;2022-10-17T07:14:49;13.50;99.90
15617;DHT22;7908;51.688;7.130;2022-10-17T07:17:18;13.70;99.90
15617;DHT22;7908;51.688;7.130;2022-10-17T07:19:50;13.80;99.90
15617;DHT22;7908;51.688;7.130;2022-10-17T07:22:19;14.00;99.90
15617;DHT22;7908;51.688;7.130;2022-10-17T07:24:48;14.10;99.90
15617;DHT22;7908;51.688;7.130;2022-10-17T07:27:19;14.20;99.90
15617;DHT22;7908;51.688;7.130;2022-10-17T07:29:48;14.40;99.90
15617;DHT22;7908;51.688;7.130;2022-10-17T07:32:17;14.50;99.90
15617;DHT22;7908;51.688;7.130;2022-10-17T07:34:47;14.50;99.90
15617;DHT22;7908;51.688;7.130;2022-10-17T07:37:16;14.70;99.90
15617;DHT22;7908;51.688;7.130;2022-10-17T07:39:45;14.80;99.90
15617;DHT22;7908;51.688;7.130;2022-10-17T07:42:15;14.90;99.90
15617;DHT22;7908;51.688;7.130;2022-10-17T07:44:46;15.00;99.90
15617;DHT22;7908;51.688;7.130;2022-10-17T07:47:17;15.10;99.90
15617;DHT22;7908;51.688;7.130;2022-10-17T07:49:46;15.20;99.90
15617;DHT22;7908;51.688;7.130;2022-10-17T07:52:15;15.30;99.90
15617;DHT22;7908;51.688;7.130;2022-10-17T07:54:46;15.40;99.90
15617;DHT22;7908;51.688;7.130;2022-10-17T07:57:15;15.50;99.90
15617;DHT22;7908;51.688;7.130;2022-10-17T07:59:44;15.60;99.90
15617;DHT22;7908;51.688;7.130;2022-10-17T08:02:20;15.70;99.90
15617;DHT22;7908;51.688;7.130;2022-10-17T08:04:51;15.80;99.90
15617;DHT22;7908;51.688;7.130;2022-10-17T08:07:20;15.90;99.90
15617;DHT22;7908;51.688;7.130;2022-10-17T08:09:55;16.00;99.90
15617;DHT22;7908;51.688;7.130;2022-10-17T08:12:24;16.10;99.90
15617;DHT22;7908;51.688;7.130;2022-10-17T08:14:54;16.10;99.90
15617;DHT22;7908;51.688;7.130;2022-10-17T08:17:26;16.20;99.90
15617;DHT22;7908;51.688;7.130;2022-10-17T08:19:56;16.30;99.90
15617;DHT22;7908;51.688;7.130;2022-10-17T08:22:28;16.40;99.90
15617;DHT22;7908;51.688;7.130;2022-10-17T08:25:07;16.50;99.90
15617;DHT22;7908;51.688;7.130;2022-10-17T08:27:37;16.60;99.90
15617;DHT22;7908;51.688;7.130;2022-10-17T08:30:08;16.70;99.90
15617;DHT22;7908;51.688;7.130;2022-10-17T08:32:43;16.70;99.90
15617;DHT22;7908;51.688;7.130;2022-10-17T08:35:12;16.80;99.90
15617;DHT22;7908;51.688;7.130;2022-10-17T08:37:43;16.90;99.90
15617;DHT22;7908;51.688;7.130;2022-10-17T08:40:18;17.00;99.90
15617;DHT22;7908;51.688;7.130;2022-10-17T08:43:12;17.10;99.90
15617;DHT22;7908;51.688;7.130;2022-10-17T08:45:46;17.20;99.90
15617;DHT22;7908;51.688;7.130;2022-10-17T08:48:23;17.30;99.90
15617;DHT22;7908;51.688;7.130;2022-10-17T08:50:59;17.30;99.90
15617;DHT22;7908;51.688;7.130;2022-10-17T08:53:35;17.40;99.90
15617;DHT22;7908;51.688;7.130;2022-10-17T08:56:17;17.50;99.90
15617;DHT22;7908;51.688;7.130;2022-10-17T08:59:05;17.50;99.90
15617;DHT22;7908;51.688;7.130;2022-10-17T09:01:46;17.60;99.90
15617;DHT22;7908;51.688;7.130;2022-10-17T09:04:47;17.60;99.90
15617;DHT22;7908;51.688;7.130;2022-10-17T09:07:26;17.60;99.90
15617;DHT22;7908;51.688;7.130;2022-10-17T09:10:11;17.70;99.90
15617;DHT22;7908;51.688;7.130;2022-10-17T09:12:47;17.60;99.90
15617;DHT22;7908;51.688;7.130;2022-10-17T09:15:42;17.60;99.90
15617;DHT22;7908;51.688;7.130;2022-10-17T09:18:16;17.70;99.90
15617;DHT22;7908;51.688;7.130;2022-10-17T09:20:52;17.70;99.90
15617;DHT22;7908;51.688;7.130;2022-10-17T09:23:28;17.70;99.90
15617;DHT22;7908;51.688;7.130;2022-10-17T09:26:10;17.70;99.90
15617;DHT22;7908;51.688;7.130;2022-10-17T09:28:43;17.70;99.90
15617;DHT22;7908;51.688;7.130;2022-10-17T09:31:19;17.80;99.90
15617;DHT22;7908;51.688;7.130;2022-10-17T09:33:50;17.80;99.90
15617;DHT22;7908;51.688;7.130;2022-10-17T09:36:27;17.90;99.90
15617;DHT22;7908;51.688;7.130;2022-10-17T09:39:02;17.90;99.90
15617;DHT22;7908;51.688;7.130;2022-10-17T09:41:35;18.00;99.90
15617;DHT22;7908;51.688;7.130;2022-10-17T09:44:15;18.00;99.90
15617;DHT22;7908;51.688;7.130;2022-10-17T09:49:42;18.20;99.90
15617;DHT22;7908;51.688;7.130;2022-10-17T09:52:17;18.30;99.90
15617;DHT22;7908;51.688;7.130;2022-10-17T09:54:49;18.40;99.90
15617;DHT22;7908;51.688;7.130;2022-10-17T09:57:21;18.50;99.90
15617;DHT22;7908;51.688;7.130;2022-10-17T10:00:00;18.40;99.90
15617;DHT22;7908;51.688;7.130;2022-10-17T10:02:31;18.40;99.90
15617;DHT22;7908;51.688;7.130;2022-10-17T10:05:16;18.50;99.90
15617;DHT22;7908;51.688;7.130;2022-10-17T10:08:02;18.50;99.90
15617;DHT22;7908;51.688;7.130;2022-10-17T10:10:31;18.60;99.90
15617;DHT22;7908;51.688;7.130;2022-10-17T10:13:09;18.50;99.90
15617;DHT22;7908;51.688;7.130;2022-10-17T10:15:49;18.50;99.90
15617;DHT22;7908;51.688;7.130;2022-10-17T10:18:32;18.50;99.90
15617;DHT22;7908;51.688;7.130;2022-10-17T10:21:22;18.40;99.90
15617;DHT22;7908;51.688;7.130;2022-10-17T10:24:11;18.40;99.90
15617;DHT22;7908;51.688;7.130;2022-10-17T10:26:43;18.30;99.90
15617;DHT22;7908;51.688;7.130;2022-10-17T10:29:25;18.30;99.90
15617;DHT22;7908;51.688;7.130;2022-10-17T10:32:11;18.30;99.90
15617;DHT22;7908;51.688;7.130;2022-10-17T10:34:57;18.40;99.90
15617;DHT22;7908;51.688;7.130;2022-10-17T10:37:37;18.30;99.90
15617;DHT22;7908;51.688;7.130;2022-10-17T10:40:18;18.30;99.90
15617;DHT22;7908;51.688;7.130;2022-10-17T10:43:02;18.20;99.90
15617;DHT22;7908;51.688;7.130;2022-10-17T10:45:41;18.20;99.90
15617;DHT22;7908;51.688;7.130;2022-10-17T10:48:20;18.20;99.90
15617;DHT22;7908;51.688;7.130;2022-10-17T10:50:54;18.20;99.90
15617;DHT22;7908;51.688;7.130;2022-10-17T10:53:41;18.30;99.90
15617;DHT22;7908;51.688;7.130;2022-10-17T10:56:21;18.30;99.90
15617;DHT22;7908;51.688;7.130;2022-10-17T10:58:59;18.40;99.90
15617;DHT22;7908;51.688;7.130;2022-10-17T11:01:45;18.50;99.90
15617;DHT22;7908;51.688;7.130;2022-10-17T11:04:26;18.50;99.90
15617;DHT22;7908;51.688;7.130;2022-10-17T11:20:13;18.70;99.90
15617;DHT22;7908;51.688;7.130;2022-10-17T11:22:47;19.10;99.90
15617;DHT22;7908;51.688;7.130;2022-10-17T11:25:28;19.00;99.90
15617;DHT22;7908;51.688;7.130;2022-10-17T11:27:58;18.80;99.90
15617;DHT22;7908;51.688;7.130;2022-10-17T11:30:40;18.80;99.90
15617;DHT22;7908;51.688;7.130;2022-10-17T11:33:22;18.80;99.90
15617;DHT22;7908;51.688;7.130;2022-10-17T11:35:59;18.70;99.90
15617;DHT22;7908;51.688;7.130;2022-10-17T11:38:38;18.60;99.90
15617;DHT22;7908;51.688;7.130;2022-10-17T11:41:12;18.60;99.90
15617;DHT22;7908;51.688;7.130;2022-10-17T11:43:49;18.60;99.90
15617;DHT22;7908;51.688;7.130;2022-10-17T11:46:21;18.50;99.90
15617;DHT22;7908;51.688;7.130;2022-10-17T11:49:09;18.50;99.90
15617;DHT22;7908;51.688;7.130;2022-10-17T11:51:50;18.50;99.90
15617;DHT22;7908;51.688;7.130;2022-10-17T11:54:32;18.50;99.90
15617;DHT22;7908;51.688;7.130;2022-10-17T11:57:15;18.50;99.90
15617;DHT22;7908;51.688;7.130;2022-10-17T12:00:11;18.40;99.90
15617;DHT22;7908;51.688;7.130;2022-10-17T12:02:49;18.50;99.90
15617;DHT22;7908;51.688;7.130;2022-10-17T12:05:25;18.40;99.90
15617;DHT22;7908;51.688;7.130;2022-10-17T12:08:02;18.40;99.90
15617;DHT22;7908;51.688;7.130;2022-10-17T12:10:38;18.50;99.90
15617;DHT22;7908;51.688;7.130;2022-10-17T12:13:48;18.60;99.90
15617;DHT22;7908;51.688;7.130;2022-10-17T12:16:47;18.60;99.90
15617;DHT22;7908;51.688;7.130;2022-10-17T12:19:33;18.80;99.90
15617;DHT22;7908;51.688;7.130;2022-10-17T12:22:15;18.80;99.90
15617;DHT22;7908;51.688;7.130;2022-10-17T12:25:03;18.80;99.90
15617;DHT22;7908;51.688;7.130;2022-10-17T12:27:38;18.80;99.90
15617;DHT22;7908;51.688;7.130;2022-10-17T12:30:20;18.70;99.90
15617;DHT22;7908;51.688;7.130;2022-10-17T12:32:57;18.70;99.90
15617;DHT22;7908;51.688;7.130;2022-10-17T12:35:34;18.60;99.90
15617;DHT22;7908;51.688;7.130;2022-10-17T12:38:27;18.50;99.90
15617;DHT22;7908;51.688;7.130;2022-10-17T12:41:03;18.50;99.90
15617;DHT22;7908;51.688;7.130;2022-10-17T12:46:56;18.40;99.90
15617;DHT22;7908;51.688;7.130;2022-10-17T12:49:47;18.40;99.90
15617;DHT22;7908;51.688;7.130;2022-10-17T12:55:13;18.40;99.90
15617;DHT22;7908;51.688;7.130;2022-10-17T12:58:00;18.30;99.90
15617;DHT22;7908;51.688;7.130;2022-10-17T13:00:36;18.30;99.90
15617;DHT22;7908;51.688;7.130;2022-10-17T13:03:11;18.30;99.90
15617;DHT22;7908;51.688;7.130;2022-10-17T13:05:42;18.40;99.90
15617;DHT22;7908;51.688;7.130;2022-10-17T13:08:17;18.40;99.90
15617;DHT22;7908;51.688;7.130;2022-10-17T13:10:50;18.50;99.90
15617;DHT22;7908;51.688;7.130;2022-10-17T13:13:25;18.50;99.90
15617;DHT22;7908;51.688;7.130;2022-10-17T13:16:00;18.50;99.90
15617;DHT22;7908;51.688;7.130;2022-10-17T13:18:29;18.50;99.90
15617;DHT22;7908;51.688;7.130;2022-10-17T13:21:01;18.60;99.90
15617;DHT22;7908;51.688;7.130;2022-10-17T13:23:33;18.50;99.90
15617;DHT22;7908;51.688;7.130;2022-10-17T13:26:14;18.60;99.90
15617;DHT22;7908;51.688;7.130;2022-10-17T13:29:00;18.60;99.90
15617;DHT22;7908;51.688;7.130;2022-10-17T13:31:32;18.60;99.90
15617;DHT22;7908;51.688;7.130;2022-10-17T13:34:02;18.60;99.90
15617;DHT22;7908;51.688;7.130;2022-10-17T13:36:32;18.50;99.90
15617;DHT22;7908;51.688;7.130;2022-10-17T13:39:06;18.50;99.90
15617;DHT22;7908;51.688;7.130;2022-10-17T13:41:40;18.50;99.90
15617;DHT22;7908;51.688;7.130;2022-10-17T13:44:14;18.40;99.90
15617;DHT22;7908;51.688;7.130;2022-10-17T13:46:45;18.30;99.90
15617;DHT22;7908;51.688;7.130;2022-10-17T13:49:20;18.30;99.90
15617;DHT22;7908;51.688;7.130;2022-10-17T13:51:54;18.30;99.90
15617;DHT22;7908;51.688;7.130;2022-10-17T13:54:35;18.30;99.90
15617;DHT22;7908;51.688;7.130;2022-10-17T13:57:18;18.20;99.90
15617;DHT22;7908;51.688;7.130;2022-10-17T13:59:52;18.20;99.90
15617;DHT22;7908;51.688;7.130;2022-10-17T14:02:25;18.20;99.90
15617;DHT22;7908;51.688;7.130;2022-10-17T14:05:02;18.20;99.90
15617;DHT22;7908;51.688;7.130;2022-10-17T14:07:53;18.20;99.90
15617;DHT22;7908;51.688;7.130;2022-10-17T14:10:43;18.20;99.90
15617;DHT22;7908;51.688;7.130;2022-10-17T14:13:20;18.20;99.90
15617;DHT22;7908;51.688;7.130;2022-10-17T14:15:52;18.20;99.90
15617;DHT22;7908;51.688;7.130;2022-10-17T14:18:24;18.30;99.90
15617;DHT22;7908;51.688;7.130;2022-10-17T14:21:03;18.30;99.90
15617;DHT22;7908;51.688;7.130;2022-10-17T14:26:47;18.40;99.90
15617;DHT22;7908;51.688;7.130;2022-10-17T14:29:21;18.40;99.90
15617;DHT22;7908;51.688;7.130;2022-10-17T14:32:03;18.50;99.90
15617;DHT22;7908;51.688;7.130;2022-10-17T14:34:36;18.60;99.90
15617;DHT22;7908;51.688;7.130;2022-10-17T14:37:08;18.60;99.90
15617;DHT22;7908;51.688;7.130;2022-10-17T14:39:38;18.70;99.90
15617;DHT22;7908;51.688;7.130;2022-10-17T14:42:17;18.70;99.90
15617;DHT22;7908;51.688;7.130;2022-10-17T14:44:48;18.70;99.90
15617;DHT22;7908;51.688;7.130;2022-10-17T14:47:20;18.70;99.90
15617;DHT22;7908;51.688;7.130;2022-10-17T14:50:24;18.70;99.90
15617;DHT22;7908;51.688;7.130;2022-10-17T14:53:04;18.70;99.90
15617;DHT22;7908;51.688;7.130;2022-10-17T14:55:35;18.70;99.90
15617;DHT22;7908;51.688;7.130;2022-10-17T14:58:15;18.70;99.90
15617;DHT22;7908;51.688;7.130;2022-10-17T15:00:44;18.80;99.90
15617;DHT22;7908;51.688;7.130;2022-10-17T15:03:14;18.70;99.90
15617;DHT22;7908;51.688;7.130;2022-10-17T15:05:46;18.70;99.90
15617;DHT22;7908;51.688;7.130;2022-10-17T15:08:22;18.70;99.90
15617;DHT22;7908;51.688;7.130;2022-10-17T15:10:52;18.70;99.90
15617;DHT22;7908;51.688;7.130;2022-10-17T15:13:21;18.70;99.90
15617;DHT22;7908;51.688;7.130;2022-10-17T15:15:56;18.70;99.90
15617;DHT22;7908;51.688;7.130;2022-10-17T15:18:27;18.70;99.90
15617;DHT22;7908;51.688;7.130;2022-10-17T15:21:00;18.70;99.90
15617;DHT22;7908;51.688;7.130;2022-10-17T15:23:43;18.70;99.90
15617;DHT22;7908;51.688;7.130;2022-10-17T15:26:18;18.60;99.90
15617;DHT22;7908;51.688;7.130;2022-10-17T15:28:47;18.60;99.90
15617;DHT22;7908;51.688;7.130;2022-10-17T15:31:18;18.70;99.90
15617;DHT22;7908;51.688;7.130;2022-10-17T15:33:51;18.70;99.90
15617;DHT22;7908;51.688;7.130;2022-10-17T15:36:24;18.70;99.90
15617;DHT22;7908;51.688;7.130;2022-10-17T15:38:55;18.70;99.90
15617;DHT22;7908;51.688;7.130;2022-10-17T15:41:28;18.70;99.90
15617;DHT22;7908;51.688;7.130;2022-10-17T15:43:59;18.60;99.90
15617;DHT22;7908;51.688;7.130;2022-10-17T15:46:32;18.60;99.90
15617;DHT22;7908;51.688;7.130;2022-10-17T15:49:04;18.60;99.90
15617;DHT22;7908;51.688;7.130;2022-10-17T15:51:33;18.50;99.90
15617;DHT22;7908;51.688;7.130;2022-10-17T15:54:03;18.50;99.90
15617;DHT22;7908;51.688;7.130;2022-10-17T15:56:35;18.40;99.90
15617;DHT22;7908;51.688;7.130;2022-10-17T15:59:11;18.40;99.90
15617;DHT22;7908;51.688;7.130;2022-10-17T16:01:45;18.40;99.90
15617;DHT22;7908;51.688;7.130;2022-10-17T16:04:16;18.40;99.90
15617;DHT22;7908;51.688;7.130;2022-10-17T16:06:47;18.40;99.90
15617;DHT22;7908;51.688;7.130;2022-10-17T16:09:16;18.30;99.90
15617;DHT22;7908;51.688;7.130;2022-10-17T16:11:45;18.30;99.90
15617;DHT22;7908;51.688;7.130;2022-10-17T16:14:15;18.30;99.90
15617;DHT22;7908;51.688;7.130;2022-10-17T16:16:46;18.20;99.90
15617;DHT22;7908;51.688;7.130;2022-10-17T16:19:19;18.20;99.90
15617;DHT22;7908;51.688;7.130;2022-10-17T16:21:51;18.10;99.90
15617;DHT22;7908;51.688;7.130;2022-10-17T16:24:21;18.00;99.90
15617;DHT22;7908;51.688;7.130;2022-10-17T16:26:51;18.00;99.90
15617;DHT22;7908;51.688;7.130;2022-10-17T16:29:20;17.90;99.90
15617;DHT22;7908;51.688;7.130;2022-10-17T16:31:50;17.90;99.90
15617;DHT22;7908;51.688;7.130;2022-10-17T16:34:23;17.80;99.90
15617;DHT22;7908;51.688;7.130;2022-10-17T16:36:53;17.80;99.90
15617;DHT22;7908;51.688;7.130;2022-10-17T16:39:22;17.70;99.90
15617;DHT22;7908;51.688;7.130;2022-10-17T16:41:51;17.60;99.90
15617;DHT22;7908;51.688;7.130;2022-10-17T16:44:25;17.50;99.90
15617;DHT22;7908;51.688;7.130;2022-10-17T16:46:57;17.40;99.90
15617;DHT22;7908;51.688;7.130;2022-10-17T16:49:28;17.30;99.90
15617;DHT22;7908;51.688;7.130;2022-10-17T16:51:58;17.30;99.90
15617;DHT22;7908;51.688;7.130;2022-10-17T16:54:29;17.30;99.90
15617;DHT22;7908;51.688;7.130;2022-10-17T16:56:58;17.20;99.90
15617;DHT22;7908;51.688;7.130;2022-10-17T16:59:30;17.20;99.90